sensor_id;sensor_type;location;lat;lon;timestamp;pressure;altitude;pressure_sealevel;temperature;humidity
46223;BME280;31943;51.410;7.564;2024-01-16T00:02:12;99457.22;;;1.15;73.43
46223;BME280;31943;51.410;7.564;2024-01-16T00:04:39;99455.72;;;1.20;73.49
46223;BME280;31943;51.410;7.564;2024-01-16T00:07:05;99471.28;;;1.25;73.32
46223;BME280;31943;51.410;7.564;2024-01-16T00:09:32;99464.44;;;1.25;73.35
46223;BME280;31943;51.410;7.564;2024-01-16T00:11:59;99461.88;;;1.25;73.22
46223;BME280;31943;51.410;7.564;2024-01-16T00:14:26;99466.13;;;1.25;73.25
46223;BME280;31943;51.410;7.564;2024-01-16T00:16:51;99468.66;;;1.23;72.90
46223;BME280;31943;51.410;7.564;2024-01-16T00:19:17;99467.63;;;1.18;72.96
46223;BME280;31943;51.410;7.564;2024-01-16T00:21:44;99463.25;;;1.15;73.14
46223;BME280;31943;51.410;7.564;2024-01-16T00:24:10;99458.94;;;1.14;73.20
46223;BME280;31943;51.410;7.564;2024-01-16T00:26:35;99466.59;;;1.13;73.11
46223;BME280;31943;51.410;7.564;2024-01-16T00:29:03;99473.50;;;1.14;73.09
46223;BME280;31943;51.410;7.564;2024-01-16T00:31:29;99475.22;;;1.15;73.29
46223;BME280;31943;51.410;7.564;2024-01-16T00:33:55;99476.00;;;1.12;73.18
46223;BME280;31943;51.410;7.564;2024-01-16T00:36:21;99481.13;;;1.12;73.32
46223;BME280;31943;51.410;7.564;2024-01-16T00:38:46;99477.91;;;1.18;73.32
46223;BME280;31943;51.410;7.564;2024-01-16T00:41:12;99483.91;;;1.18;73.10
46223;BME280;31943;51.410;7.564;2024-01-16T00:43:38;99486.63;;;1.22;73.13
46223;BME280;31943;51.410;7.564;2024-01-16T00:46:05;99485.91;;;1.26;73.14
46223;BME280;31943;51.410;7.564;2024-01-16T00:48:31;99497.84;;;1.25;72.86
46223;BME280;31943;51.410;7.564;2024-01-16T00:50:56;99491.78;;;1.23;72.91
46223;BME280;31943;51.410;7.564;2024-01-16T00:53:26;99494.97;;;1.16;72.60
46223;BME280;31943;51.410;7.564;2024-01-16T00:55:52;99488.00;;;1.13;72.95
46223;BME280;31943;51.410;7.564;2024-01-16T00:58:18;99494.84;;;1.13;72.65
46223;BME280;31943;51.410;7.564;2024-01-16T01:00:45;99498.28;;;1.13;72.64
46223;BME280;31943;51.410;7.564;2024-01-16T01:03:12;99493.88;;;1.09;72.64
46223;BME280;31943;51.410;7.564;2024-01-16T01:05:38;99501.34;;;1.03;73.19
46223;BME280;31943;51.410;7.564;2024-01-16T01:08:04;99503.94;;;1.03;72.96
46223;BME280;31943;51.410;7.564;2024-01-16T01:10:29;99504.06;;;1.08;73.08
46223;BME280;31943;51.410;7.564;2024-01-16T01:12:55;99500.63;;;1.07;73.11
46223;BME280;31943;51.410;7.564;2024-01-16T01:15:21;99507.69;;;1.13;73.13
46223;BME280;31943;51.410;7.564;2024-01-16T01:17:48;99514.63;;;1.15;73.23
46223;BME280;31943;51.410;7.564;2024-01-16T01:20:17;99515.41;;;1.13;73.04
46223;BME280;31943;51.410;7.564;2024-01-16T01:22:43;99515.47;;;1.14;73.04
46223;BME280;31943;51.410;7.564;2024-01-16T01:25:09;99527.59;;;1.18;72.88
46223;BME280;31943;51.410;7.564;2024-01-16T01:27:34;99526.03;;;1.22;73.01
46223;BME280;31943;51.410;7.564;2024-01-16T01:30:00;99524.31;;;1.23;72.89
46223;BME280;31943;51.410;7.564;2024-01-16T01:32:25;99522.53;;;1.20;72.84
46223;BME280;31943;51.410;7.564;2024-01-16T01:34:51;99527.75;;;1.23;72.92
46223;BME280;31943;51.410;7.564;2024-01-16T01:37:18;99524.38;;;1.24;72.33
46223;BME280;31943;51.410;7.564;2024-01-16T01:39:44;99521.69;;;1.21;72.59
46223;BME280;31943;51.410;7.564;2024-01-16T01:42:10;99521.63;;;1.19;72.60
46223;BME280;31943;51.410;7.564;2024-01-16T01:44:35;99527.75;;;1.23;72.51
46223;BME280;31943;51.410;7.564;2024-01-16T01:47:02;99520.88;;;1.22;72.62
46223;BME280;31943;51.410;7.564;2024-01-16T01:49:28;99527.72;;;1.22;72.54
46223;BME280;31943;51.410;7.564;2024-01-16T01:51:54;99537.19;;;1.23;72.44
46223;BME280;31943;51.410;7.564;2024-01-16T01:54:22;99534.44;;;1.18;72.55
46223;BME280;31943;51.410;7.564;2024-01-16T01:56:50;99537.13;;;1.21;72.44
46223;BME280;31943;51.410;7.564;2024-01-16T01:59:17;99543.09;;;1.20;72.26
46223;BME280;31943;51.410;7.564;2024-01-16T02:01:45;99548.38;;;1.25;72.42
46223;BME280;31943;51.410;7.564;2024-01-16T02:04:12;99538.03;;;1.23;72.40
46223;BME280;31943;51.410;7.564;2024-01-16T02:06:39;99536.31;;;1.22;72.31
46223;BME280;31943;51.410;7.564;2024-01-16T02:09:05;99539.81;;;1.24;72.36
46223;BME280;31943;51.410;7.564;2024-01-16T02:11:32;99537.28;;;1.26;72.29
46223;BME280;31943;51.410;7.564;2024-01-16T02:13:58;99541.38;;;1.21;72.26
46223;BME280;31943;51.410;7.564;2024-01-16T02:16:24;99544.72;;;1.18;72.13
46223;BME280;31943;51.410;7.564;2024-01-16T02:18:51;99539.47;;;1.15;72.35
46223;BME280;31943;51.410;7.564;2024-01-16T02:21:20;99537.75;;;1.15;72.23
46223;BME280;31943;51.410;7.564;2024-01-16T02:23:48;99535.16;;;1.14;72.48
46223;BME280;31943;51.410;7.564;2024-01-16T02:26:14;99536.09;;;1.16;72.36
46223;BME280;31943;51.410;7.564;2024-01-16T02:28:40;99545.44;;;1.14;72.47
46223;BME280;31943;51.410;7.564;2024-01-16T02:31:07;99545.31;;;1.11;72.37
46223;BME280;31943;51.410;7.564;2024-01-16T02:33:32;99541.75;;;1.07;72.32
46223;BME280;31943;51.410;7.564;2024-01-16T02:35:58;99543.53;;;1.08;72.56
46223;BME280;31943;51.410;7.564;2024-01-16T02:38:23;99545.25;;;1.09;72.39
46223;BME280;31943;51.410;7.564;2024-01-16T02:40:51;99546.16;;;1.10;72.42
46223;BME280;31943;51.410;7.564;2024-01-16T02:43:17;99543.69;;;1.13;72.51
46223;BME280;31943;51.410;7.564;2024-01-16T02:45:42;99546.25;;;1.13;72.52
46223;BME280;31943;51.410;7.564;2024-01-16T02:48:08;99543.63;;;1.11;72.53
46223;BME280;31943;51.410;7.564;2024-01-16T02:50:34;99540.31;;;1.14;72.55
46223;BME280;31943;51.410;7.564;2024-01-16T02:52:59;99541.16;;;1.14;72.67
46223;BME280;31943;51.410;7.564;2024-01-16T02:55:25;99538.69;;;1.17;72.67
46223;BME280;31943;51.410;7.564;2024-01-16T02:57:52;99540.53;;;1.20;72.77
46223;BME280;31943;51.410;7.564;2024-01-16T03:00:19;99545.47;;;1.15;72.49
46223;BME280;31943;51.410;7.564;2024-01-16T03:02:45;99550.53;;;1.12;72.71
46223;BME280;31943;51.410;7.564;2024-01-16T03:05:11;99550.59;;;1.15;72.76
46223;BME280;31943;51.410;7.564;2024-01-16T03:07:37;99548.72;;;1.10;72.86
46223;BME280;31943;51.410;7.564;2024-01-16T03:10:03;99539.25;;;1.09;72.87
46223;BME280;31943;51.410;7.564;2024-01-16T03:12:29;99537.72;;;1.14;72.85
46223;BME280;31943;51.410;7.564;2024-01-16T03:14:56;99539.38;;;1.12;72.59
46223;BME280;31943;51.410;7.564;2024-01-16T03:17:21;99536.09;;;1.16;72.88
46223;BME280;31943;51.410;7.564;2024-01-16T03:19:47;99537.25;;;1.24;72.81
46223;BME280;31943;51.410;7.564;2024-01-16T03:22:13;99549.44;;;1.30;72.70
46223;BME280;31943;51.410;7.564;2024-01-16T03:24:38;99548.53;;;1.29;72.58
46223;BME280;31943;51.410;7.564;2024-01-16T03:27:04;99553.81;;;1.32;72.62
46223;BME280;31943;51.410;7.564;2024-01-16T03:29:31;99549.38;;;1.28;72.40
46223;BME280;31943;51.410;7.564;2024-01-16T03:31:58;99547.59;;;1.27;72.32
46223;BME280;31943;51.410;7.564;2024-01-16T03:34:24;99545.16;;;1.30;72.46
46223;BME280;31943;51.410;7.564;2024-01-16T03:36:49;99543.66;;;1.35;72.49
46223;BME280;31943;51.410;7.564;2024-01-16T03:39:15;99544.56;;;1.37;72.27
46223;BME280;31943;51.410;7.564;2024-01-16T03:41:41;99540.34;;;1.40;72.16
46223;BME280;31943;51.410;7.564;2024-01-16T03:44:06;99540.50;;;1.44;72.38
46223;BME280;31943;51.410;7.564;2024-01-16T03:46:32;99548.06;;;1.40;72.09
46223;BME280;31943;51.410;7.564;2024-01-16T03:48:59;99530.78;;;1.35;72.12
46223;BME280;31943;51.410;7.564;2024-01-16T03:51:24;99546.25;;;1.37;72.52
46223;BME280;31943;51.410;7.564;2024-01-16T03:53:50;99553.16;;;1.38;72.29
46223;BME280;31943;51.410;7.564;2024-01-16T03:56:16;99554.84;;;1.37;72.24
46223;BME280;31943;51.410;7.564;2024-01-16T03:58:41;99553.16;;;1.38;72.35
46223;BME280;31943;51.410;7.564;2024-01-16T04:01:08;99555.88;;;1.43;72.50
46223;BME280;31943;51.410;7.564;2024-01-16T04:03:34;99554.13;;;1.42;72.19
46223;BME280;31943;51.410;7.564;2024-01-16T04:06:01;99552.38;;;1.41;72.10
46223;BME280;31943;51.410;7.564;2024-01-16T04:08:27;99544.56;;;1.37;72.24
46223;BME280;31943;51.410;7.564;2024-01-16T04:10:53;99554.00;;;1.38;72.34
46223;BME280;31943;51.410;7.564;2024-01-16T04:13:18;99550.66;;;1.41;72.41
46223;BME280;31943;51.410;7.564;2024-01-16T04:15:44;99546.47;;;1.43;72.34
46223;BME280;31943;51.410;7.564;2024-01-16T04:18:10;99551.66;;;1.45;72.42
46223;BME280;31943;51.410;7.564;2024-01-16T04:20:36;99544.59;;;1.39;72.34
46223;BME280;31943;51.410;7.564;2024-01-16T04:23:04;99547.22;;;1.41;72.41
46223;BME280;31943;51.410;7.564;2024-01-16T04:25:29;99539.53;;;1.41;72.26
46223;BME280;31943;51.410;7.564;2024-01-16T04:27:55;99542.88;;;1.38;72.16
46223;BME280;31943;51.410;7.564;2024-01-16T04:30:20;99543.66;;;1.35;72.14
46223;BME280;31943;51.410;7.564;2024-01-16T04:32:46;99547.16;;;1.39;72.43
46223;BME280;31943;51.410;7.564;2024-01-16T04:35:11;99538.72;;;1.42;72.23
46223;BME280;31943;51.410;7.564;2024-01-16T04:37:37;99538.78;;;1.43;72.11
46223;BME280;31943;51.410;7.564;2024-01-16T04:40:06;99535.50;;;1.49;72.11
46223;BME280;31943;51.410;7.564;2024-01-16T04:42:32;99541.50;;;1.48;72.10
46223;BME280;31943;51.410;7.564;2024-01-16T04:44:58;99539.78;;;1.48;72.14
46223;BME280;31943;51.410;7.564;2024-01-16T04:47:23;99544.06;;;1.48;72.17
46223;BME280;31943;51.410;7.564;2024-01-16T04:49:49;99545.78;;;1.47;72.10
46223;BME280;31943;51.410;7.564;2024-01-16T04:52:14;99533.78;;;1.48;71.96
46223;BME280;31943;51.410;7.564;2024-01-16T04:54:40;99531.09;;;1.45;72.10
46223;BME280;31943;51.410;7.564;2024-01-16T04:57:08;99533.72;;;1.46;72.09
46223;BME280;31943;51.410;7.564;2024-01-16T04:59:33;99530.16;;;1.43;71.97
46223;BME280;31943;51.410;7.564;2024-01-16T05:01:59;99536.19;;;1.43;72.18
46223;BME280;31943;51.410;7.564;2024-01-16T05:04:24;99537.16;;;1.47;71.87
46223;BME280;31943;51.410;7.564;2024-01-16T05:06:51;99537.78;;;1.40;72.11
